CDT,Max TemperatureF,Mean TemperatureF,Min TemperatureF,Max Dew PointF,MeanDew PointF,Min DewpointF,Max Humidity, Mean Humidity, Min Humidity, Max Sea Level PressureIn, Mean Sea Level PressureIn, Min Sea Level PressureIn, Max VisibilityMiles, Mean VisibilityMiles, Min VisibilityMiles, Max Wind SpeedMPH, Mean Wind SpeedMPH, Max Gust SpeedMPH,PrecipitationIn, CloudCover, Events, WindDirDegrees
2013-4-1,42,35,28,28,20,16,86,55,34,30.20,30.11,29.93,10,10,10,20,12,26,0.00,1,,314
2013-4-2,46,34,21,23,17,10,86,53,23,30.31,30.26,30.21,10,10,10,17,8,24,0.00,0,,306
2013-4-3,51,38,24,21,17,10,80,48,22,30.45,30.36,30.31,10,10,7,13,6,20,0.00,0,,62
2013-4-4,60,42,24,25,20,16,86,45,17,30.31,30.13,30.00,10,10,10,12,5,17,0.00,0,,223
2013-4-5,57,45,33,32,24,16,81,48,21,30.19,30.12,30.01,10,10,10,21,9,24,0.00,1,Rain,40
2013-4-6,73,54,35,48,33,25,72,46,22,30.12,29.86,29.67,10,10,4,38,18,50,0.10,2,Rain-Thunderstorm,165
2013-4-7,68,56,44,48,42,37,93,65,33,29.95,29.88,29.70,10,9,3,20,10,29,0.00,1,,297
2013-4-8,73,60,46,61,53,39,94,75,47,29.93,29.79,29.66,10,10,3,28,14,34,0.37,3,Rain-Thunderstorm,193
2013-4-9,78,63,48,63,55,45,100,75,47,29.93,29.86,29.80,10,9,3,28,15,36,0.00,4,Rain-Thunderstorm,144
2013-4-10,51,46,42,48,44,41,100,94,87,29.91,29.84,29.73,10,5,1,25,15,32,1.44,6,Rain-Thunderstorm,52
2013-4-11,53,47,41,50,45,36,100,92,76,29.84,29.63,29.60,10,7,1,29,15,41,0.20,8,Rain,245
2013-4-12,44,40,37,37,35,32,93,80,70,29.90,29.74,29.62,10,10,4,29,15,32,0.00,8,Rain,252
2013-4-13,51,44,37,39,33,28,87,70,50,29.99,29.95,29.90,10,10,7,23,14,30,0.00,7,,266
2013-4-14,75,60,44,52,45,39,87,62,34,29.98,29.80,29.65,10,10,10,31,13,37,0.00,3,,138
2013-4-15,64,55,46,55,51,46,100,83,55,29.99,29.84,29.72,10,10,5,26,17,39,0.52,6,Rain-Thunderstorm,221
2013-4-16,55,50,44,46,42,39,100,77,58,30.23,30.12,29.94,10,10,2,15,9,18,0.36,6,Rain-Thunderstorm,9
2013-4-17,60,50,44,55,45,36,100,85,71,30.25,30.05,29.75,10,8,2,26,15,34,0.41,8,Rain-Thunderstorm,72
2013-4-18,64,53,42,63,55,36,100,92,71,29.77,29.59,29.47,10,8,2,32,15,41,1.48,7,Rain-Thunderstorm,188
2013-4-19,41,39,35,36,31,28,81,73,65,29.98,29.73,29.59,10,10,10,32,24,37,0.00,8,,266
2013-4-20,46,40,33,36,29,25,87,68,46,30.40,30.23,29.99,10,10,10,16,10,22,0.00,2,,302
2013-4-21,55,44,33,39,34,28,87,65,47,30.50,30.40,30.32,10,10,10,20,12,25,0.00,0,,130
2013-4-22,68,52,37,45,39,36,93,64,35,30.31,30.17,30.04,10,10,10,18,9,22,0.00,1,,141
2013-4-23,57,48,39,54,46,37,100,87,67,30.04,29.95,29.89,10,9,4,22,10,26,0.35,5,Rain,295
2013-4-24,50,44,37,39,35,30,100,74,50,30.17,30.06,29.95,10,10,3,16,11,23,0.03,5,Rain,296
2013-4-25,53,46,39,36,32,25,87,62,33,30.33,30.23,30.11,10,10,10,28,14,38,0.00,1,,249
2013-4-26,60,46,37,43,35,34,87,77,51,30.34,30.33,30.32,10,10,10,23,9,25,0.00,0,,148
2013-4-27,69,56,42,54,47,39,100,68,33,30.26,30.11,29.99,10,9,4,17,10,24,0.14,4,Rain,131
2013-4-28,64,58,53,57,55,54,100,92,73,29.98,29.89,29.85,10,6,2,10,6,,0.08,6,Rain,12
2013-4-29,73,60,48,59,54,46,100,81,53,29.94,29.87,29.77,10,8,2,25,10,29,0.00,0,,191
2013-4-30,86,73,60,61,57,54,82,61,35,29.97,29.86,29.78,10,10,10,23,17,30,0.00,0,,185